Franklinville, North Carolina
Current Conditions -  °F | °C
As of 4:15 PM on Tuesday 21 Oct 2014 (Local Time) from K5W8 Reporting Station
Scattered Clouds Scattered Clouds  
Wind Chill: 71°   Ceiling: Unl
Heat Index: 71°   Visibility: 10mi
Dew Point: 47°   Wind: 6mph
Humidity: 42%   Direction: 260°W
Pressure: 29.84"   Gusts: NA
Location:  35.74°N, 79.69°W
Report Text: K5W8 212015Z AUTO 26005KT 10SM SCT075 22/09 A2984 RMK AO2 T02180085
Loading
Personal Weather Stations






























Interactive Weather Map
Tropical Storm Tracking
New forecast layout! Learn more

10-Day Weather Forecast

Advertisements
Track Severe Weather on mobile